Observation data for Muleshoe on 08/12/2019      Previous  Date  Next       Current Mesonet Observations  Soil Data  Daily Summary Page  Observations in Plain Language
KMUS 120500Z 10003KT 21/15 A3003 RMK A01 T02110152  RH  072%=      5-min Rain = 0
KMUS 120505Z 08003KT 21/15 A3004 RMK A01 T02100152  RH  073%=      5-min Rain = 0
KMUS 120510Z 10002KT 21/15 A3004 RMK A01 T02080153  RH  074%=      5-min Rain = 0
KMUS 120515Z 10003KT 21/15 A3004 RMK A01 T02070152  RH  074%=      5-min Rain = 0
KMUS 120520Z 12002KT 21/16 A3004 RMK A01 T02070156  RH  076%=      5-min Rain = 0
KMUS 120525Z 12002KT 21/16 A3004 RMK A01 T02060158  RH  078%=      5-min Rain = 0
KMUS 120530Z 13003KT 21/16 A3005 RMK A01 T02050161  RH  080%=      5-min Rain = 0
KMUS 120535Z 15004KT 21/16 A3005 RMK A01 T02050161  RH  080%=      5-min Rain = 0
KMUS 120540Z 17004KT 21/16 A3005 RMK A01 T02050163  RH  081%=      5-min Rain = 0
KMUS 120545Z 20009KT 20/16 A3005 RMK A01 T02040164  RH  082%=      5-min Rain = 0
KMUS 120550Z 16007KT 21/16 A3005 RMK A01 T02050159  RH  079%=      5-min Rain = 0
KMUS 120555Z 18007G12KT 21/16 A3005 RMK A01 T02100157  RH  075%=      5-min Rain = 0
KMUS 120600Z 17008KT 22/15 A3005 RMK A01 T02150154  RH  072%=      5-min Rain = 0
KMUS 120605Z 14006KT 22/16 A3004 RMK A01 T02150157  RH  073%=      5-min Rain = 0
KMUS 120610Z 13007KT 21/16 A3004 RMK A01 T02130160  RH  075%=      5-min Rain = 0
KMUS 120615Z 12008KT 21/16 A3003 RMK A01 T02130159  RH  075%=      5-min Rain = 0
KMUS 120620Z 11010KT 21/16 A3002 RMK A01 T02140159  RH  074%=      5-min Rain = 0
KMUS 120625Z 12011KT 22/16 A3002 RMK A01 T02160155  RH  071%=      5-min Rain = 0
KMUS 120630Z 13014KT 23/14 A3001 RMK A01 T02270144  RH  062%=      5-min Rain = 0
KMUS 120635Z 14009KT 24/15 A3001 RMK A01 T02380145  RH  058%=      5-min Rain = 0
KMUS 120640Z 15007G16KT 24/15 A3002 RMK A01 T02350152  RH  062%=      5-min Rain = 0
KMUS 120645Z 16015G20KT 25/15 A3001 RMK A01 T02500151  RH  057%=      5-min Rain = 0
KMUS 120650Z 16015G21KT 26/15 A3001 RMK A01 T02550152  RH  055%=      5-min Rain = 0
KMUS 120655Z 17015G21KT 26/15 A3002 RMK A01 T02600148  RH  052%=      5-min Rain = 0
KMUS 120700Z 17016KT 26/15 A3002 RMK A01 T02620147  RH  051%=      5-min Rain = 0
KMUS 120705Z 17014G19KT 26/15 A3001 RMK A01 T02580147  RH  052%=      5-min Rain = 0
KMUS 120710Z 16013G18KT 25/15 A3001 RMK A01 T02530149  RH  055%=      5-min Rain = 0
KMUS 120715Z 16011G16KT 25/15 A3001 RMK A01 T02470152  RH  058%=      5-min Rain = 0
KMUS 120720Z 15009KT 24/15 A3001 RMK A01 T02420153  RH  060%=      5-min Rain = 0
KMUS 120725Z 16008KT 24/15 A3001 RMK A01 T02390154  RH  062%=      5-min Rain = 0
KMUS 120730Z 15009KT 24/15 A30 RMK A01 T02370153  RH  062%=      5-min Rain = 0
KMUS 120735Z 02005G11KT 24/15 A3001 RMK A01 T02390152  RH  061%=      5-min Rain = 0
KMUS 120740Z 32009KT 23/16 A3003 RMK A01 T02290159  RH  068%=      5-min Rain = 0
KMUS 120745Z 31006KT 22/16 A3004 RMK A01 T02200160  RH  072%=      5-min Rain = 0
KMUS 120750Z 31005KT 22/16 A3003 RMK A01 T02220157  RH  070%=      5-min Rain = 0
KMUS 120755Z 33007KT 22/16 A3003 RMK A01 T02220158  RH  071%=      5-min Rain = 0
KMUS 120800Z 05002KT 22/16 A3002 RMK A01 T02190158  RH  072%=      5-min Rain = 0
KMUS 120805Z 35002KT 22/16 A3002 RMK A01 T02160159  RH  073%=      5-min Rain = 0
KMUS 120810Z 33004KT 21/16 A3003 RMK A01 T02110161  RH  077%=      5-min Rain = 0
KMUS 120815Z 07002KT 21/16 A3003 RMK A01 T02090160  RH  077%=      5-min Rain = 0
KMUS 120820Z 06004KT 21/16 A3003 RMK A01 T02080159  RH  077%=      5-min Rain = 0
KMUS 120825Z 06006KT 21/16 A3003 RMK A01 T02080156  RH  076%=      5-min Rain = 0
KMUS 120830Z 04004KT 21/15 A3003 RMK A01 T02070154  RH  075%=      5-min Rain = 0
KMUS 120835Z 04002KT 21/15 A3003 RMK A01 T02060153  RH  075%=      5-min Rain = 0
KMUS 120840Z 06003KT 21/15 A3003 RMK A01 T02050152  RH  075%=      5-min Rain = 0
KMUS 120845Z 06006KT 20/15 A3003 RMK A01 T02040151  RH  075%=      5-min Rain = 0
KMUS 120850Z 04006KT 20/15 A3003 RMK A01 T02040150  RH  074%=      5-min Rain = 0
KMUS 120855Z 05003KT 20/15 A3003 RMK A01 T02040151  RH  075%=      5-min Rain = 0
KMUS 120900Z 06003KT 20/15 A3002 RMK A01 T02030151  RH  075%=      5-min Rain = 0
KMUS 120905Z 07004KT 20/15 A3002 RMK A01 T02010151  RH  076%=      5-min Rain = 0
KMUS 120910Z 08005KT 20/15 A3002 RMK A01 T02000152  RH  077%=      5-min Rain = 0
KMUS 120915Z 09006KT 20/15 A3002 RMK A01 T01960154  RH  080%=      5-min Rain = 0
KMUS 120920Z 08006KT 19/15 A3002 RMK A01 T01930152  RH  081%=      5-min Rain = 0
KMUS 120925Z 09006KT 19/15 A3002 RMK A01 T01920152  RH  082%=      5-min Rain = 0
KMUS 120930Z 10006KT 19/15 A3002 RMK A01 T01890152  RH  083%=      5-min Rain = 0
KMUS 120935Z 10005KT 19/15 A3002 RMK A01 T01880152  RH  083%=      5-min Rain = 0
KMUS 120940Z 11004KT 19/15 A3002 RMK A01 T01880151  RH  083%=      5-min Rain = 0
KMUS 120945Z 10005KT 19/15 A3002 RMK A01 T01860150  RH  083%=      5-min Rain = 0
KMUS 120950Z 10006KT 19/15 A3002 RMK A01 T01850150  RH  084%=      5-min Rain = 0
KMUS 120955Z 10005KT 18/15 A3002 RMK A01 T01840150  RH  084%=      5-min Rain = 0
KMUS 121000Z 10004KT 18/15 A3002 RMK A01 T01840149  RH  084%=      5-min Rain = 0
KMUS 121005Z 08003KT 19/15 A3002 RMK A01 T01850149  RH  083%=      5-min Rain = 0
KMUS 121010Z 08003KT 18/15 A3002 RMK A01 T01830148  RH  084%=      5-min Rain = 0
KMUS 121015Z 09003KT 18/15 A3002 RMK A01 T01830148  RH  084%=      5-min Rain = 0
KMUS 121020Z 10003KT 18/15 A3002 RMK A01 T01820148  RH  084%=      5-min Rain = 0
KMUS 121025Z 10003KT 18/15 A3002 RMK A01 T01810148  RH  085%=      5-min Rain = 0
KMUS 121030Z 11004KT 18/15 A3002 RMK A01 T01810148  RH  085%=      5-min Rain = 0
KMUS 121035Z 11004KT 18/15 A3002 RMK A01 T01800147  RH  085%=      5-min Rain = 0
KMUS 121040Z 11003KT 18/15 A3002 RMK A01 T01800147  RH  085%=      5-min Rain = 0
KMUS 121045Z 11003KT 18/15 A3002 RMK A01 T01790147  RH  085%=      5-min Rain = 0
KMUS 121050Z 11003KT 18/15 A3003 RMK A01 T01790147  RH  085%=      5-min Rain = 0
KMUS 121055Z 11003KT 18/15 A3003 RMK A01 T01790147  RH  085%=      5-min Rain = 0
KMUS 121100Z 11004KT 18/15 A3003 RMK A01 T01790147  RH  085%=      5-min Rain = 0
KMUS 121105Z 11004KT 18/15 A3003 RMK A01 T01780147  RH  086%=      5-min Rain = 0
KMUS 121110Z 12004KT 18/15 A3003 RMK A01 T01770147  RH  087%=      5-min Rain = 0
KMUS 121115Z 12003KT 18/15 A3003 RMK A01 T01750147  RH  088%=      5-min Rain = 0
KMUS 121120Z 12003KT 17/15 A3002 RMK A01 T01740147  RH  088%=      5-min Rain = 0
KMUS 121125Z 11002KT 17/15 A3003 RMK A01 T01730148  RH  089%=      5-min Rain = 0
KMUS 121130Z 10002KT 17/15 A3003 RMK A01 T01730148  RH  089%=      5-min Rain = 0
KMUS 121135Z 09002KT 17/15 A3003 RMK A01 T01720147  RH  089%=      5-min Rain = 0
KMUS 121140Z 12001KT 17/15 A3003 RMK A01 T01720147  RH  089%=      5-min Rain = 0
KMUS 121145Z 12002KT 17/15 A3003 RMK A01 T01710147  RH  090%=      5-min Rain = 0
KMUS 121150Z 14002KT 17/15 A3003 RMK A01 T01700147  RH  090%=      5-min Rain = 0
KMUS 121155Z 13001KT 17/15 A3003 RMK A01 T01700147  RH  090%=      5-min Rain = 0
KMUS 121200Z 16000KT 17/15 A3003 RMK A01 T01690147  RH  091%=      5-min Rain = 0
KMUS 121205Z 06000KT 17/15 A3003 RMK A01 T01680148  RH  092%=      5-min Rain = 0
KMUS 121210Z 06000KT 17/15 A3003 RMK A01 T01680148  RH  092%=      5-min Rain = 0
KMUS 121215Z 06001KT 17/15 A3004 RMK A01 T01670149  RH  093%=      5-min Rain = 0
KMUS 121220Z 22002KT 17/15 A3004 RMK A01 T01660149  RH  093%=      5-min Rain = 0
KMUS 121225Z 16002KT 17/15 A3004 RMK A01 T01670149  RH  094%=      5-min Rain = 0
KMUS 121230Z 15001KT 17/15 A3004 RMK A01 T01680152  RH  094%=      5-min Rain = 0
KMUS 121235Z 15001KT 17/16 A3004 RMK A01 T01710155  RH  094%=      5-min Rain = 0
KMUS 121240Z 15000KT 17/16 A3004 RMK A01 T01740156  RH  094%=      5-min Rain = 0
KMUS 121245Z 14000KT 18/16 A3004 RMK A01 T01750157  RH  093%=      5-min Rain = 0
KMUS 121250Z 00000KT 18/16 A3004 RMK A01 T01780160  RH  094%=      5-min Rain = 0
KMUS 121255Z 00000KT 18/16 A3004 RMK A01 T01810162  RH  093%=      5-min Rain = 0
KMUS 121300Z 00000KT 18/16 A3004 RMK A01 T01830162  RH  092%=      5-min Rain = 0
KMUS 121305Z 00000KT 19/16 A3004 RMK A01 T01850162  RH  091%=      5-min Rain = 0
KMUS 121310Z 00000KT 19/17 A3004 RMK A01 T01920166  RH  089%=      5-min Rain = 0
KMUS 121315Z 32002KT 20/16 A3004 RMK A01 T01980163  RH  084%=      5-min Rain = 0
KMUS 121320Z 31001KT 20/16 A3004 RMK A01 T01980164  RH  085%=      5-min Rain = 0
KMUS 121325Z 00000KT 20/17 A3004 RMK A01 T02000167  RH  085%=      5-min Rain = 0
KMUS 121330Z 15000KT 21/17 A3004 RMK A01 T02090169  RH  082%=      5-min Rain = 0
KMUS 121335Z 14001KT 22/16 A3004 RMK A01 T02150162  RH  075%=      5-min Rain = 0
KMUS 121340Z 14002KT 22/16 A3004 RMK A01 T02160161  RH  075%=      5-min Rain = 0
KMUS 121345Z 15000KT 22/16 A3004 RMK A01 T02200164  RH  074%=      5-min Rain = 0
KMUS 121350Z 18002KT 22/16 A3004 RMK A01 T02240162  RH  071%=      5-min Rain = 0
KMUS 121355Z 15003KT 23/16 A3004 RMK A01 T02270161  RH  069%=      5-min Rain = 0
KMUS 121400Z 17004KT 23/16 A3004 RMK A01 T02290162  RH  069%=      5-min Rain = 0
KMUS 121405Z 17005KT 23/16 A3004 RMK A01 T02310161  RH  068%=      5-min Rain = 0
KMUS 121410Z 18003KT 24/17 A3004 RMK A01 T02350166  RH  068%=      5-min Rain = 0
KMUS 121415Z 17004KT 24/17 A3004 RMK A01 T02390165  RH  067%=      5-min Rain = 0
KMUS 121420Z 18004KT 24/17 A3004 RMK A01 T02420167  RH  066%=      5-min Rain = 0
KMUS 121425Z 18003KT 25/17 A3004 RMK A01 T02450169  RH  066%=      5-min Rain = 0
KMUS 121430Z 20005KT 25/17 A3004 RMK A01 T02500166  RH  063%=      5-min Rain = 0
KMUS 121435Z 21006KT 26/17 A3004 RMK A01 T02550166  RH  061%=      5-min Rain = 0
KMUS 121440Z 21008KT 26/16 A3004 RMK A01 T02570163  RH  059%=      5-min Rain = 0
KMUS 121445Z 21009KT 26/17 A3004 RMK A01 T02590165  RH  059%=      5-min Rain = 0
KMUS 121450Z 22008KT 26/17 A3004 RMK A01 T02630168  RH  059%=      5-min Rain = 0
KMUS 121455Z 22009KT 26/17 A3004 RMK A01 T02640165  RH  057%=      5-min Rain = 0
KMUS 121500Z 22010KT 26/17 A3004 RMK A01 T02640166  RH  058%=      5-min Rain = 0
KMUS 121505Z 22009KT 27/17 A3003 RMK A01 T02650169  RH  058%=      5-min Rain = 0
KMUS 121510Z 22009KT 27/17 A3003 RMK A01 T02690171  RH  058%=      5-min Rain = 0
KMUS 121515Z 22009KT 27/17 A3003 RMK A01 T02730170  RH  056%=      5-min Rain = 0
KMUS 121520Z 22012KT 27/17 A3003 RMK A01 T02740167  RH  055%=      5-min Rain = 0
KMUS 121525Z 21012KT 27/17 A3003 RMK A01 T02720168  RH  055%=      5-min Rain = 0
KMUS 121530Z 22011KT 27/17 A3003 RMK A01 T02730170  RH  056%=      5-min Rain = 0
KMUS 121535Z 21012KT 28/17 A3003 RMK A01 T02760170  RH  055%=      5-min Rain = 0
KMUS 121540Z 21011KT 28/17 A3003 RMK A01 T02780173  RH  055%=      5-min Rain = 0
KMUS 121545Z 23013KT 28/17 A3003 RMK A01 T02790170  RH  054%=      5-min Rain = 0
KMUS 121550Z 22011KT 28/17 A3003 RMK A01 T02790172  RH  055%=      5-min Rain = 0
KMUS 121555Z 23012KT 28/17 A3003 RMK A01 T02830172  RH  054%=      5-min Rain = 0
KMUS 121600Z 23010KT 28/17 A3004 RMK A01 T02830173  RH  054%=      5-min Rain = 0
KMUS 121605Z 23010G15KT 29/17 A3003 RMK A01 T02870174  RH  053%=      5-min Rain = 0
KMUS 121610Z 22011KT 29/17 A3003 RMK A01 T02880173  RH  052%=      5-min Rain = 0
KMUS 121615Z 22011G16KT 29/18 A3003 RMK A01 T02910175  RH  052%=      5-min Rain = 0
KMUS 121620Z 23012KT 29/17 A3003 RMK A01 T02910170  RH  050%=      5-min Rain = 0.01
KMUS 121625Z 23011KT 29/17 A3003 RMK A01 T02930172  RH  051%=      5-min Rain = 0
KMUS 121630Z 24010KT 30/18 A3003 RMK A01 T02950176  RH  051%=      5-min Rain = 0
KMUS 121635Z 23011KT 30/17 A3003 RMK A01 T02960174  RH  050%=      5-min Rain = 0
KMUS 121640Z 23009KT 30/17 A3003 RMK A01 T02970174  RH  050%=      5-min Rain = 0
KMUS 121645Z 23010KT 30/17 A3003 RMK A01 T03000174  RH  049%=      5-min Rain = 0
KMUS 121650Z 24010KT 30/17 A3003 RMK A01 T03020170  RH  047%=      5-min Rain = 0
KMUS 121655Z 25009KT 30/17 A3003 RMK A01 T03010174  RH  049%=      5-min Rain = 0
KMUS 121700Z 25010KT 30/17 A3003 RMK A01 T03010172  RH  048%=      5-min Rain = 0
KMUS 121705Z 25010G15KT 30/17 A3003 RMK A01 T03030172  RH  048%=      5-min Rain = 0
KMUS 121710Z 24010KT 31/17 A3003 RMK A01 T03050167  RH  046%=      5-min Rain = 0
KMUS 121715Z 24010KT 31/17 A3003 RMK A01 T03050165  RH  045%=      5-min Rain = 0
KMUS 121720Z 25012KT 31/16 A3003 RMK A01 T03080163  RH  044%=      5-min Rain = 0
KMUS 121725Z 25011G16KT 31/16 A3003 RMK A01 T03090161  RH  043%=      5-min Rain = 0
KMUS 121730Z 25011G16KT 31/16 A3003 RMK A01 T03080163  RH  044%=      5-min Rain = 0
KMUS 121735Z 25010KT 31/16 A3003 RMK A01 T03070159  RH  043%=      5-min Rain = 0
KMUS 121740Z 26009G14KT 31/17 A3003 RMK A01 T03100166  RH  044%=      5-min Rain = 0
KMUS 121745Z 24009G14KT 31/16 A3003 RMK A01 T03110162  RH  043%=      5-min Rain = 0
KMUS 121750Z 23009KT 31/16 A3003 RMK A01 T03100156  RH  041%=      5-min Rain = 0
KMUS 121755Z 24008KT 31/16 A3003 RMK A01 T03120160  RH  042%=      5-min Rain = 0
KMUS 121800Z 25007KT 31/16 A3003 RMK A01 T03140160  RH  041%=      5-min Rain = 0
KMUS 121805Z 25008KT 31/15 A3002 RMK A01 T03120154  RH  040%=      5-min Rain = 0
KMUS 121810Z 24007KT 31/16 A3002 RMK A01 T03110161  RH  042%=      5-min Rain = 0
KMUS 121815Z 25007KT 31/16 A3002 RMK A01 T03140162  RH  042%=      5-min Rain = 0
KMUS 121820Z 23005KT 31/15 A3002 RMK A01 T03120153  RH  040%=      5-min Rain = 0
KMUS 121825Z 26007KT 31/15 A3002 RMK A01 T03120153  RH  040%=      5-min Rain = 0
KMUS 121830Z 26005KT 31/16 A3002 RMK A01 T03140158  RH  041%=      5-min Rain = 0
KMUS 121835Z 24005KT 31/16 A3002 RMK A01 T03140155  RH  040%=      5-min Rain = 0
KMUS 121840Z 26005KT 32/16 A3002 RMK A01 T03180158  RH  040%=      5-min Rain = 0
KMUS 121845Z 26005KT 32/16 A3002 RMK A01 T03190159  RH  040%=      5-min Rain = 0
KMUS 121850Z 20005KT 32/16 A3002 RMK A01 T03170156  RH  040%=      5-min Rain = 0
KMUS 121855Z 21005KT 32/15 A3002 RMK A01 T03190154  RH  039%=      5-min Rain = 0
KMUS 121900Z 24005G11KT 32/15 A3002 RMK A01 T03160154  RH  039%=      5-min Rain = 0
KMUS 121905Z 28007G12KT 32/16 A3002 RMK A01 T03180158  RH  040%=      5-min Rain = 0
KMUS 121910Z 26007KT 32/15 A3002 RMK A01 T03200152  RH  038%=      5-min Rain = 0
KMUS 121915Z 29004KT 32/15 A3001 RMK A01 T03200153  RH  038%=      5-min Rain = 0
KMUS 121920Z 27006G11KT 32/15 A3001 RMK A01 T03210149  RH  037%=      5-min Rain = 0
KMUS 121925Z 28006G11KT 32/15 A3001 RMK A01 T03230149  RH  036%=      5-min Rain = 0
KMUS 121930Z 28009KT 33/14 A3001 RMK A01 T03250142  RH  035%=      5-min Rain = 0
KMUS 121935Z 28006KT 33/14 A3001 RMK A01 T03260144  RH  035%=      5-min Rain = 0
KMUS 121940Z 30005KT 33/14 A3001 RMK A01 T03270142  RH  034%=      5-min Rain = 0
KMUS 121945Z 24007KT 33/15 A3001 RMK A01 T03280146  RH  035%=      5-min Rain = 0
KMUS 121950Z 24007KT 33/14 A3001 RMK A01 T03280141  RH  034%=      5-min Rain = 0
KMUS 121955Z 26004KT 33/14 A3001 RMK A01 T03280136  RH  033%=      5-min Rain = 0
KMUS 122000Z 32002KT 33/14 A3001 RMK A01 T03260141  RH  034%=      5-min Rain = 0
KMUS 122005Z 27004G12KT 33/15 A30 RMK A01 T03290152  RH  036%=      5-min Rain = 0
KMUS 122010Z 30006KT 33/15 A30 RMK A01 T03290151  RH  036%=      5-min Rain = 0
KMUS 122015Z 25006G12KT 33/14 A30 RMK A01 T03300140  RH  033%=      5-min Rain = 0
KMUS 122020Z 24008KT 33/14 A30 RMK A01 T03320138  RH  032%=      5-min Rain = 0
KMUS 122025Z 25009KT 33/14 A30 RMK A01 T03320137  RH  032%=      5-min Rain = 0
KMUS 122030Z 23005KT 33/14 A30 RMK A01 T03290136  RH  032%=      5-min Rain = 0
KMUS 122035Z 26007KT 33/14 A2999 RMK A01 T03320136  RH  032%=      5-min Rain = 0
KMUS 122040Z 25006KT 33/14 A2999 RMK A01 T03340139  RH  032%=      5-min Rain = 0
KMUS 122045Z 28009KT 34/14 A2999 RMK A01 T03370140  RH  032%=      5-min Rain = 0
KMUS 122050Z 25006G11KT 33/14 A2999 RMK A01 T03330138  RH  032%=      5-min Rain = 0
KMUS 122055Z 26008KT 33/14 A2999 RMK A01 T03320140  RH  033%=      5-min Rain = 0
KMUS 122100Z 27010KT 33/14 A2998 RMK A01 T03340142  RH  033%=      5-min Rain = 0
KMUS 122105Z 28006G11KT 33/14 A2998 RMK A01 T03340138  RH  032%=      5-min Rain = 0
KMUS 122110Z 26006G12KT 34/14 A2998 RMK A01 T03350139  RH  032%=      5-min Rain = 0
KMUS 122115Z 27006G12KT 34/14 A2998 RMK A01 T03350140  RH  032%=      5-min Rain = 0
KMUS 122120Z 27010KT 34/14 A2998 RMK A01 T03370141  RH  032%=      5-min Rain = 0
KMUS 122125Z 27005KT 34/14 A2997 RMK A01 T03370140  RH  032%=      5-min Rain = 0
KMUS 122130Z 26007KT 34/14 A2997 RMK A01 T03380140  RH  032%=      5-min Rain = 0
KMUS 122135Z 26008KT 34/14 A2997 RMK A01 T03390138  RH  031%=      5-min Rain = 0
KMUS 122140Z 23007KT 34/14 A2997 RMK A01 T03370138  RH  032%=      5-min Rain = 0
KMUS 122145Z 23006KT 34/14 A2997 RMK A01 T03390140  RH  032%=      5-min Rain = 0
KMUS 122150Z 26005G10KT 34/14 A2996 RMK A01 T03390136  RH  031%=      5-min Rain = 0
KMUS 122155Z 23005KT 34/14 A2996 RMK A01 T03400138  RH  031%=      5-min Rain = 0
KMUS 122200Z 27008G13KT 34/14 A2996 RMK A01 T03400142  RH  032%=      5-min Rain = 0
KMUS 122205Z 28008KT 34/14 A2996 RMK A01 T03400144  RH  032%=      5-min Rain = 0
KMUS 122210Z 27009KT 34/14 A2996 RMK A01 T03410142  RH  032%=      5-min Rain = 0
KMUS 122215Z 25010KT 34/14 A2996 RMK A01 T03410143  RH  032%=      5-min Rain = 0
KMUS 122220Z 25008G14KT 34/14 A2995 RMK A01 T03410141  RH  031%=      5-min Rain = 0
KMUS 122225Z 28009KT 34/14 A2995 RMK A01 T03410144  RH  032%=      5-min Rain = 0
KMUS 122230Z 27008G13KT 34/14 A2995 RMK A01 T03410144  RH  032%=      5-min Rain = 0
KMUS 122235Z 27008G13KT 34/14 A2995 RMK A01 T03410143  RH  032%=      5-min Rain = 0
KMUS 122240Z 25009KT 34/14 A2995 RMK A01 T03410141  RH  031%=      5-min Rain = 0
KMUS 122245Z 26009KT 34/14 A2995 RMK A01 T03400140  RH  031%=      5-min Rain = 0
KMUS 122250Z 27009G14KT 34/14 A2995 RMK A01 T03400141  RH  032%=      5-min Rain = 0
KMUS 122255Z 26007KT 34/14 A2995 RMK A01 T03390139  RH  031%=      5-min Rain = 0
KMUS 122300Z 26008G13KT 34/14 A2995 RMK A01 T03380141  RH  032%=      5-min Rain = 0
KMUS 122305Z 27008KT 34/14 A2995 RMK A01 T03390140  RH  031%=      5-min Rain = 0
KMUS 122310Z 27005KT 34/14 A2995 RMK A01 T03400142  RH  032%=      5-min Rain = 0
KMUS 122315Z 28006KT 34/14 A2995 RMK A01 T03400141  RH  032%=      5-min Rain = 0
KMUS 122320Z 30005KT 34/14 A2995 RMK A01 T03390141  RH  032%=      5-min Rain = 0
KMUS 122325Z 29005KT 34/14 A2995 RMK A01 T03380141  RH  032%=      5-min Rain = 0
KMUS 122330Z 28005KT 34/14 A2994 RMK A01 T03380142  RH  032%=      5-min Rain = 0
KMUS 122335Z 28006KT 34/14 A2994 RMK A01 T03380141  RH  032%=      5-min Rain = 0
KMUS 122340Z 28005KT 34/14 A2994 RMK A01 T03370142  RH  032%=      5-min Rain = 0
KMUS 122345Z 30007KT 34/14 A2994 RMK A01 T03370144  RH  033%=      5-min Rain = 0
KMUS 122350Z 32006KT 34/14 A2994 RMK A01 T03350144  RH  033%=      5-min Rain = 0
KMUS 122355Z 31007KT 33/15 A2994 RMK A01 T03340146  RH  034%=      5-min Rain = 0
KMUS 130000Z 31007KT 33/15 A2994 RMK A01 T03340147  RH  034%=      5-min Rain = 0
KMUS 130005Z 32007KT 33/15 A2994 RMK A01 T03320146  RH  034%=      5-min Rain = 0
KMUS 130010Z 32006KT 33/15 A2994 RMK A01 T03320146  RH  034%=      5-min Rain = 0
KMUS 130015Z 32006KT 33/15 A2994 RMK A01 T03320145  RH  034%=      5-min Rain = 0
KMUS 130020Z 31006KT 33/15 A2994 RMK A01 T03310148  RH  035%=      5-min Rain = 0
KMUS 130025Z 31007KT 33/15 A2994 RMK A01 T03310149  RH  035%=      5-min Rain = 0
KMUS 130030Z 31008KT 33/15 A2994 RMK A01 T03290150  RH  036%=      5-min Rain = 0
KMUS 130035Z 31006KT 33/15 A2994 RMK A01 T03280150  RH  036%=      5-min Rain = 0
KMUS 130040Z 31007KT 33/16 A2994 RMK A01 T03270156  RH  038%=      5-min Rain = 0
KMUS 130045Z 31007KT 33/16 A2995 RMK A01 T03250158  RH  039%=      5-min Rain = 0
KMUS 130050Z 31007KT 32/16 A2995 RMK A01 T03230160  RH  039%=      5-min Rain = 0
KMUS 130055Z 31006KT 32/16 A2995 RMK A01 T03210159  RH  040%=      5-min Rain = 0
KMUS 130100Z 32006KT 32/17 A2995 RMK A01 T03180165  RH  042%=      5-min Rain = 0
KMUS 130105Z 32006KT 32/17 A2995 RMK A01 T03150169  RH  044%=      5-min Rain = 0
KMUS 130110Z 33005KT 31/17 A2995 RMK A01 T03120172  RH  045%=      5-min Rain = 0
KMUS 130115Z 33004KT 31/18 A2996 RMK A01 T03090175  RH  047%=      5-min Rain = 0
KMUS 130120Z 34004KT 31/18 A2996 RMK A01 T03070177  RH  048%=      5-min Rain = 0
KMUS 130125Z 33005KT 30/18 A2996 RMK A01 T03030178  RH  050%=      5-min Rain = 0
KMUS 130130Z 34004KT 30/18 A2996 RMK A01 T03000180  RH  051%=      5-min Rain = 0
KMUS 130135Z 34004KT 30/18 A2996 RMK A01 T02970181  RH  052%=      5-min Rain = 0
KMUS 130140Z 34003KT 29/18 A2996 RMK A01 T02940184  RH  054%=      5-min Rain = 0
KMUS 130145Z 33005KT 29/19 A2996 RMK A01 T02880186  RH  057%=      5-min Rain = 0
KMUS 130150Z 33005KT 28/19 A2996 RMK A01 T02820188  RH  060%=      5-min Rain = 0
KMUS 130155Z 33004KT 28/19 A2996 RMK A01 T02760190  RH  063%=      5-min Rain = 0
KMUS 130200Z 34004KT 27/19 A2996 RMK A01 T02730190  RH  064%=      5-min Rain = 0
KMUS 130205Z 33004KT 27/19 A2996 RMK A01 T02700192  RH  066%=      5-min Rain = 0
KMUS 130210Z 32004KT 27/19 A2996 RMK A01 T02670193  RH  068%=      5-min Rain = 0
KMUS 130215Z 32006KT 26/19 A2997 RMK A01 T02610194  RH  070%=      5-min Rain = 0
KMUS 130220Z 32007KT 26/19 A2997 RMK A01 T02560193  RH  072%=      5-min Rain = 0
KMUS 130225Z 32006KT 25/19 A2997 RMK A01 T02530193  RH  073%=      5-min Rain = 0
KMUS 130230Z 32007KT 25/20 A2997 RMK A01 T02510195  RH  075%=      5-min Rain = 0
KMUS 130235Z 32006KT 25/20 A2997 RMK A01 T02480195  RH  077%=      5-min Rain = 0
KMUS 130240Z 32006KT 25/20 A2997 RMK A01 T02480196  RH  077%=      5-min Rain = 0
KMUS 130245Z 32005KT 25/20 A2998 RMK A01 T02470196  RH  078%=      5-min Rain = 0
KMUS 130250Z 32004KT 25/20 A2998 RMK A01 T02470197  RH  078%=      5-min Rain = 0
KMUS 130255Z 32005KT 25/20 A2998 RMK A01 T02460198  RH  079%=      5-min Rain = 0
KMUS 130300Z 32004KT 25/20 A2998 RMK A01 T02450198  RH  079%=      5-min Rain = 0
KMUS 130305Z 31004KT 25/20 A2998 RMK A01 T02450198  RH  079%=      5-min Rain = 0
KMUS 130310Z 32004KT 25/20 A2999 RMK A01 T02450197  RH  079%=      5-min Rain = 0
KMUS 130315Z 33004KT 25/20 A2999 RMK A01 T02450196  RH  079%=      5-min Rain = 0
KMUS 130320Z 32004KT 24/20 A2999 RMK A01 T02440195  RH  078%=      5-min Rain = 0
KMUS 130325Z 31004KT 24/19 A2999 RMK A01 T02440193  RH  078%=      5-min Rain = 0
KMUS 130330Z 31004KT 25/19 A2999 RMK A01 T02450191  RH  076%=      5-min Rain = 0
KMUS 130335Z 30004KT 25/19 A2999 RMK A01 T02460192  RH  076%=      5-min Rain = 0
KMUS 130340Z 30003KT 24/19 A2999 RMK A01 T02440193  RH  077%=      5-min Rain = 0
KMUS 130345Z 29004KT 24/19 A2999 RMK A01 T02410193  RH  079%=      5-min Rain = 0
KMUS 130350Z 30004KT 24/19 A2999 RMK A01 T02400194  RH  080%=      5-min Rain = 0
KMUS 130355Z 30005KT 24/20 A2999 RMK A01 T02390195  RH  081%=      5-min Rain = 0
KMUS 130400Z 30006KT 24/20 A2999 RMK A01 T02400196  RH  081%=      5-min Rain = 0
KMUS 130405Z 31007KT 24/20 A2999 RMK A01 T02390196  RH  081%=      5-min Rain = 0
KMUS 130410Z 32009G15KT 24/19 A30 RMK A01 T02430187  RH  075%=      5-min Rain = 0
KMUS 130415Z 35007KT 25/18 A30 RMK A01 T02520184  RH  070%=      5-min Rain = 0
KMUS 130420Z 02011KT 26/18 A30 RMK A01 T02580176  RH  064%=      5-min Rain = 0
KMUS 130425Z 03013KT 26/17 A3001 RMK A01 T02640168  RH  058%=      5-min Rain = 0
KMUS 130430Z 03013KT 26/16 A3001 RMK A01 T02630164  RH  057%=      5-min Rain = 0
KMUS 130435Z 05012G19KT 26/16 A3001 RMK A01 T02620162  RH  057%=      5-min Rain = 0
KMUS 130440Z 05013KT 26/16 A3001 RMK A01 T02610161  RH  057%=      5-min Rain = 0
KMUS 130445Z 05013G19KT 26/16 A3001 RMK A01 T02600161  RH  057%=      5-min Rain = 0
KMUS 130450Z 05012KT 26/16 A3001 RMK A01 T02580162  RH  058%=      5-min Rain = 0
KMUS 130455Z 05013G18KT 26/16 A3002 RMK A01 T02560162  RH  059%=      5-min Rain = 0

Page generated in 0.0184 seconds.